createdAt,value
2022-08-03T00:00:35.155Z,10.88
2022-08-03T00:03:02.227Z,9.85
2022-08-03T00:05:29.239Z,8.73
2022-08-03T00:07:56.162Z,10.65
2022-08-03T00:10:23.176Z,10.65
2022-08-03T00:12:53.280Z,11.15
2022-08-03T00:15:20.417Z,11.75
2022-08-03T00:17:52.461Z,13.68
2022-08-03T00:20:21.925Z,11.35
2022-08-03T00:22:49.711Z,11.75
2022-08-03T00:25:16.939Z,9.93
2022-08-03T00:27:43.865Z,11.38
2022-08-03T00:30:13.313Z,8.40
2022-08-03T00:32:45.077Z,9.80
2022-08-03T00:37:59.619Z,11.98
2022-08-03T00:40:26.938Z,12.55
2022-08-03T00:43:03.253Z,10.75
2022-08-03T00:45:34.083Z,11.10
2022-08-03T00:48:05.332Z,11.88
2022-08-03T00:50:35.330Z,11.82
2022-08-03T00:53:04.970Z,12.35
2022-08-03T00:55:32.165Z,9.45
2022-08-03T00:58:06.465Z,11.18
2022-08-03T01:00:42.053Z,13.02
2022-08-03T01:03:10.518Z,11.43
2022-08-03T01:06:19.646Z,11.80
2022-08-03T01:08:54.928Z,7.95
2022-08-03T01:12:00.134Z,9.27
2022-08-03T01:14:39.176Z,10.70
2022-08-03T01:17:21.415Z,7.80
2022-08-03T01:20:04.809Z,10.23
2022-08-03T01:22:58.883Z,10.25
2022-08-03T01:25:34.276Z,9.85
2022-08-03T01:28:17.844Z,8.43
2022-08-03T01:30:48.774Z,9.23
2022-08-03T01:33:18.423Z,11.98
2022-08-03T01:35:50.930Z,13.40
2022-08-03T01:38:48.595Z,8.85
2022-08-03T01:41:20.460Z,11.20
2022-08-03T01:43:55.331Z,9.77
2022-08-03T01:49:10.467Z,8.70
2022-08-03T01:52:03.635Z,11.70
2022-08-03T01:54:36.643Z,6.75
2022-08-03T01:57:04.755Z,5.28
2022-08-03T01:59:34.521Z,10.93
2022-08-03T02:02:32.070Z,12.80
2022-08-03T02:04:52.629Z,6.90
2022-08-03T02:07:22.729Z,11.30
2022-08-03T02:09:52.607Z,7.18
2022-08-03T02:12:20.954Z,8.45
2022-08-03T02:14:51.779Z,7.57
2022-08-03T02:17:39.349Z,8.25
2022-08-03T02:20:08.751Z,9.27
2022-08-03T02:22:39.248Z,7.50
2022-08-03T02:25:13.565Z,7.32
2022-08-03T02:27:58.100Z,7.10
2022-08-03T02:30:38.627Z,6.88
2022-08-03T02:33:13.285Z,9.30
2022-08-03T02:35:44.354Z,9.85
2022-08-03T02:38:12.817Z,9.63
2022-08-03T02:40:42.381Z,9.77
2022-08-03T02:43:12.851Z,7.13
2022-08-03T02:45:45.734Z,8.30
2022-08-03T02:48:18.313Z,6.82
2022-08-03T02:50:46.593Z,8.40
2022-08-03T02:53:16.078Z,9.88
2022-08-03T02:55:45.900Z,9.23
2022-08-03T02:58:14.410Z,12.15
2022-08-03T03:00:44.119Z,7.18
2022-08-03T03:03:14.422Z,11.90
2022-08-03T03:05:54.775Z,11.68
2022-08-03T03:08:28.112Z,8.05
2022-08-03T03:11:03.222Z,9.95
2022-08-03T03:13:31.810Z,9.07
2022-08-03T03:16:02.606Z,10.15
2022-08-03T03:18:32.187Z,10.88
2022-08-03T03:21:01.626Z,14.43
2022-08-03T03:23:30.730Z,11.77
2022-08-03T03:26:02.337Z,8.05
2022-08-03T03:28:32.403Z,8.13
2022-08-03T03:31:00.115Z,11.02
2022-08-03T03:33:28.608Z,11.27
2022-08-03T03:35:56.278Z,10.50
2022-08-03T03:38:27.967Z,10.00
2022-08-03T03:40:57.570Z,8.48
2022-08-03T03:43:27.176Z,5.50
2022-08-03T03:45:58.053Z,7.47
2022-08-03T03:48:28.063Z,9.95
2022-08-03T03:50:57.277Z,8.15
2022-08-03T03:53:24.419Z,8.00
2022-08-03T03:55:59.639Z,9.77
2022-08-03T03:58:33.457Z,10.75
2022-08-03T04:01:01.264Z,8.20
2022-08-03T04:03:28.581Z,12.43
2022-08-03T04:06:14.451Z,11.80
2022-08-03T04:08:59.887Z,10.23
2022-08-03T04:11:31.906Z,9.52
2022-08-03T04:14:08.049Z,8.93
2022-08-03T04:16:43.850Z,10.00
2022-08-03T04:19:22.932Z,8.93
2022-08-03T04:21:57.662Z,15.48
2022-08-03T04:24:28.798Z,12.70
2022-08-03T04:26:57.383Z,11.30
2022-08-03T04:29:28.388Z,8.65
2022-08-03T04:32:00.381Z,11.15
2022-08-03T04:34:28.149Z,11.30
2022-08-03T04:37:02.147Z,10.38
2022-08-03T04:39:34.121Z,9.88
2022-08-03T04:42:08.631Z,12.38
2022-08-03T04:44:42.905Z,11.88
2022-08-03T04:47:09.908Z,8.93
2022-08-03T04:49:38.558Z,6.70
2022-08-03T04:52:10.427Z,8.57
2022-08-03T04:54:50.129Z,9.02
2022-08-03T05:00:02.699Z,9.93
2022-08-03T05:02:33.605Z,10.50
2022-08-03T05:05:00.623Z,9.70
2022-08-03T05:07:35.378Z,11.10
2022-08-03T05:10:16.376Z,12.05
2022-08-03T05:12:48.109Z,8.10
2022-08-03T05:15:17.639Z,10.05
2022-08-03T05:17:47.193Z,12.27
2022-08-03T05:20:16.655Z,10.77
2022-08-03T05:22:45.973Z,10.20
2022-08-03T05:25:17.334Z,14.60
2022-08-03T05:27:46.881Z,8.60
2022-08-03T05:30:31.500Z,10.88
2022-08-03T05:33:04.444Z,11.93
2022-08-03T05:35:55.962Z,12.38
2022-08-03T05:38:28.667Z,13.02
2022-08-03T05:41:21.125Z,15.73
2022-08-03T05:43:47.838Z,15.55
2022-08-03T05:46:17.331Z,11.23
2022-08-03T05:48:45.458Z,11.20
2022-08-03T05:51:14.870Z,14.98
2022-08-03T05:53:43.728Z,16.10
2022-08-03T05:56:13.928Z,11.45
2022-08-03T05:58:43.409Z,16.57
2022-08-03T06:01:10.469Z,19.42
2022-08-03T06:03:37.444Z,15.75
2022-08-03T06:06:09.352Z,17.35
2022-08-03T06:08:36.431Z,16.13
2022-08-03T06:11:04.110Z,17.65
2022-08-03T06:13:31.352Z,17.55
2022-08-03T06:15:58.777Z,15.75
2022-08-03T06:18:30.383Z,18.43
2022-08-03T06:21:09.565Z,18.85
2022-08-03T06:23:54.076Z,14.50
2022-08-03T06:26:29.010Z,14.32
2022-08-03T06:28:58.179Z,23.17
2022-08-03T06:31:33.395Z,16.30
2022-08-03T06:34:34.095Z,20.33
2022-08-03T06:36:52.581Z,16.02
2022-08-03T06:39:20.266Z,17.73
2022-08-03T07:02:06.627Z,14.98
2022-08-03T07:04:33.982Z,19.02
2022-08-03T07:07:00.936Z,16.75
2022-08-03T07:09:30.235Z,11.48
2022-08-03T07:11:59.944Z,14.77
2022-08-03T07:14:27.032Z,8.43
2022-08-03T07:16:58.754Z,11.75
2022-08-03T07:19:26.117Z,14.15
2022-08-03T07:21:56.376Z,16.30
2022-08-03T07:24:29.226Z,10.48
2022-08-03T07:26:58.327Z,13.88
2022-08-03T07:29:25.339Z,13.45
2022-08-03T07:31:52.206Z,13.63
2022-08-03T07:34:19.394Z,13.27
2022-08-03T07:36:46.323Z,16.20
2022-08-03T07:39:18.046Z,16.63
2022-08-03T07:41:51.539Z,10.60
2022-08-03T07:44:19.421Z,12.68
2022-08-03T07:46:48.720Z,9.82
2022-08-03T07:49:16.224Z,22.25
2022-08-03T07:51:43.210Z,17.35
2022-08-03T07:54:10.316Z,19.35
2022-08-03T07:56:37.642Z,16.88
2022-08-03T07:59:04.716Z,13.73
2022-08-03T08:01:36.694Z,11.55
2022-08-03T08:04:06.780Z,14.60
2022-08-03T08:09:03.631Z,19.05
2022-08-03T08:11:30.572Z,12.90
2022-08-03T08:13:57.469Z,14.40
2022-08-03T08:16:26.577Z,12.57
2022-08-03T08:18:55.986Z,17.40
2022-08-03T08:21:25.067Z,18.08
2022-08-03T08:24:18.133Z,13.23
2022-08-03T08:26:46.678Z,15.90
2022-08-03T08:29:14.283Z,14.50
2022-08-03T08:31:41.715Z,19.45
2022-08-03T08:34:09.252Z,19.00
2022-08-03T08:36:38.615Z,12.73
2022-08-03T08:39:05.953Z,17.10
2022-08-03T08:41:34.802Z,21.90
2022-08-03T08:44:02.387Z,23.30
2022-08-03T08:46:33.034Z,18.85
2022-08-03T08:49:04.852Z,17.92
2022-08-03T08:51:59.583Z,16.10
2022-08-03T08:54:31.515Z,12.57
2022-08-03T08:57:12.495Z,14.90
2022-08-03T08:59:56.987Z,19.25
2022-08-03T09:02:29.912Z,12.38
2022-08-03T09:04:58.342Z,11.85
2022-08-03T09:07:27.835Z,15.50
2022-08-03T09:10:10.565Z,13.77
2022-08-03T09:12:44.858Z,14.23
2022-08-03T09:15:28.766Z,14.15
2022-08-03T09:18:00.159Z,16.83
2022-08-03T09:20:29.616Z,18.48
2022-08-03T09:23:01.225Z,17.42
2022-08-03T09:25:36.667Z,18.23
2022-08-03T09:28:11.091Z,17.17
2022-08-03T09:30:39.845Z,11.90
2022-08-03T09:33:12.311Z,18.67
2022-08-03T09:35:54.500Z,14.95
2022-08-03T09:38:27.496Z,12.38
2022-08-03T09:41:00.436Z,14.05
2022-08-03T09:43:28.560Z,13.07
2022-08-03T09:46:07.387Z,13.40
2022-08-03T09:48:39.658Z,17.80
2022-08-03T09:51:14.496Z,15.82
2022-08-03T09:54:00.292Z,14.60
2022-08-03T09:56:44.253Z,15.68
2022-08-03T09:59:15.010Z,11.98
2022-08-03T10:01:42.395Z,13.25
2022-08-03T10:04:22.727Z,17.17
2022-08-03T10:07:30.972Z,11.88
2022-08-03T10:10:30.192Z,17.38
2022-08-03T10:12:52.777Z,15.75
2022-08-03T10:16:21.761Z,14.43
2022-08-03T10:18:11.194Z,13.18
2022-08-03T10:20:44.311Z,14.60
2022-08-03T10:23:12.201Z,13.93
2022-08-03T10:25:41.294Z,14.57
2022-08-03T10:28:19.188Z,13.52
2022-08-03T10:30:51.356Z,14.32
2022-08-03T10:33:51.417Z,16.95
2022-08-03T10:36:13.660Z,14.18
2022-08-03T10:38:57.294Z,16.25
2022-08-03T10:41:46.310Z,15.43
2022-08-03T10:44:20.355Z,14.95
2022-08-03T10:46:53.407Z,15.38
2022-08-03T10:49:34.605Z,13.13
2022-08-03T10:52:10.452Z,13.30
2022-08-03T10:55:07.497Z,14.82
2022-08-03T10:57:59.090Z,23.10
2022-08-03T11:03:16.174Z,17.00
2022-08-03T11:05:49.678Z,19.15
2022-08-03T11:08:24.494Z,22.65
2022-08-03T11:10:58.667Z,22.25
2022-08-03T11:13:28.311Z,21.95
2022-08-03T11:16:02.257Z,18.80
2022-08-03T11:18:33.522Z,16.25
2022-08-03T11:21:04.866Z,18.60
2022-08-03T11:24:05.372Z,22.52
2022-08-03T11:26:36.491Z,18.00
2022-08-03T11:29:31.897Z,18.17
2022-08-03T11:31:59.505Z,20.55
2022-08-03T11:34:28.685Z,18.33
2022-08-03T11:39:46.665Z,18.10
2022-08-03T11:42:22.944Z,20.98
2022-08-03T11:44:58.002Z,24.98
2022-08-03T11:47:29.709Z,24.58
2022-08-03T11:50:02.163Z,21.92
2022-08-03T11:52:35.657Z,25.27
2022-08-03T11:55:03.555Z,26.85
2022-08-03T11:59:03.379Z,30.45
2022-08-03T12:00:32.596Z,28.38
2022-08-03T12:03:03.468Z,27.88
2022-08-03T12:05:37.544Z,31.90
2022-08-03T12:08:07.356Z,25.98
2022-08-03T12:10:37.829Z,25.50
2022-08-03T12:13:56.735Z,26.40
2022-08-03T12:15:59.321Z,24.35
2022-08-03T12:18:32.787Z,24.83
2022-08-03T12:21:09.586Z,24.02
2022-08-03T12:23:41.221Z,25.52
2022-08-03T12:26:10.207Z,26.80
2022-08-03T12:28:49.791Z,32.03
2022-08-03T12:31:17.230Z,35.33
2022-08-03T12:34:08.351Z,26.50
2022-08-03T12:36:36.680Z,25.83
2022-08-03T12:39:11.899Z,24.60
2022-08-03T12:41:42.910Z,25.85
2022-08-03T12:44:12.585Z,23.58
2022-08-03T12:46:47.990Z,21.08
2022-08-03T12:49:18.793Z,22.42
2022-08-03T12:51:46.317Z,26.92
2022-08-03T12:54:17.833Z,24.40
2022-08-03T12:57:16.206Z,26.03
2022-08-03T12:59:53.251Z,23.73
2022-08-03T13:02:26.617Z,31.75
2022-08-03T13:04:54.604Z,25.25
2022-08-03T13:07:24.696Z,26.60
2022-08-03T13:09:55.947Z,26.23
2022-08-03T13:12:24.070Z,25.17
2022-08-03T13:14:58.205Z,27.48
2022-08-03T13:17:28.706Z,29.33
2022-08-03T13:19:58.427Z,26.40
2022-08-03T13:22:28.915Z,22.05
2022-08-03T13:24:57.651Z,28.50
2022-08-03T13:28:03.922Z,22.98
2022-08-03T13:30:29.729Z,26.15
2022-08-03T13:32:58.689Z,20.10
2022-08-03T13:35:26.048Z,28.33
2022-08-03T13:37:53.463Z,21.83
2022-08-03T13:40:23.825Z,24.30
2022-08-03T13:42:57.134Z,24.63
2022-08-03T13:45:27.543Z,26.65
2022-08-03T13:47:57.079Z,21.67
2022-08-03T13:50:26.514Z,31.02
2022-08-03T13:52:53.455Z,16.20
2022-08-03T13:55:20.566Z,20.33
2022-08-03T13:58:06.450Z,30.55
2022-08-03T14:00:34.661Z,24.83
2022-08-03T14:03:13.284Z,22.70
2022-08-03T14:05:43.056Z,23.88
2022-08-03T14:08:10.433Z,27.98
2022-08-03T14:10:40.049Z,26.67
2022-08-03T14:13:11.610Z,21.73
2022-08-03T14:15:39.215Z,24.70
2022-08-03T14:18:15.624Z,24.48
2022-08-03T14:20:49.986Z,26.73
2022-08-03T14:23:21.450Z,24.83
2022-08-03T14:25:51.799Z,25.35
2022-08-03T14:28:24.302Z,20.85
2022-08-03T14:30:58.775Z,30.45
2022-08-03T14:33:26.153Z,25.85
2022-08-03T14:35:53.506Z,24.80
2022-08-03T14:38:21.829Z,25.13
2022-08-03T14:40:49.763Z,27.20
2022-08-03T14:43:23.117Z,24.52
2022-08-03T14:45:53.839Z,25.48
2022-08-03T14:50:30.491Z,25.67
2022-08-03T14:51:12.136Z,24.88
2022-08-03T14:53:39.491Z,24.88
2022-08-03T14:56:10.623Z,20.55
2022-08-03T14:58:38.643Z,23.83
2022-08-03T15:02:06.399Z,21.17
2022-08-03T15:03:54.619Z,22.40
2022-08-03T15:06:27.262Z,19.33
2022-08-03T15:11:41.432Z,20.77
2022-08-03T15:14:09.539Z,22.38
2022-08-03T15:16:37.393Z,23.33
2022-08-03T15:20:05.565Z,24.38
2022-08-03T15:21:54.111Z,20.65
2022-08-03T15:24:21.281Z,19.10
2022-08-03T15:26:48.407Z,19.48
2022-08-03T15:30:05.550Z,20.92
2022-08-03T15:32:06.054Z,23.40
2022-08-03T15:34:35.817Z,20.40
2022-08-03T15:37:03.427Z,22.48
2022-08-03T15:39:59.783Z,23.55
2022-08-03T15:52:22.698Z,31.67
2022-08-03T15:54:49.800Z,21.42
2022-08-03T15:57:16.775Z,17.67
2022-08-03T15:59:43.732Z,15.55
2022-08-03T16:02:10.796Z,18.67
2022-08-03T16:04:40.774Z,15.38
2022-08-03T16:07:17.588Z,15.88
2022-08-03T16:09:47.074Z,20.20
2022-08-03T16:12:16.605Z,20.73
2022-08-03T16:14:52.773Z,18.33
2022-08-03T16:17:24.580Z,19.00
2022-08-03T16:19:55.003Z,17.75
2022-08-03T16:22:23.825Z,20.23
2022-08-03T16:24:55.049Z,14.00
2022-08-03T16:27:37.353Z,17.92
2022-08-03T16:30:15.931Z,17.75
2022-08-03T16:32:44.784Z,17.75
2022-08-03T16:35:19.742Z,16.27
2022-08-03T16:37:56.833Z,26.67
2022-08-03T16:40:25.767Z,24.42
2022-08-03T16:42:52.706Z,17.65
2022-08-03T16:45:26.042Z,17.38
2022-08-03T16:48:01.640Z,23.73
2022-08-03T16:50:34.113Z,20.98
2022-08-03T16:53:06.316Z,25.92
2022-08-03T16:55:52.171Z,21.02
2022-08-03T16:58:41.661Z,19.35
2022-08-03T17:01:21.472Z,21.45
2022-08-03T17:04:02.046Z,20.77
2022-08-03T17:09:08.710Z,23.00
2022-08-03T17:11:38.920Z,20.85
2022-08-03T17:14:12.175Z,20.75
2022-08-03T17:16:39.730Z,19.58
2022-08-03T17:19:23.405Z,20.42
2022-08-03T17:22:04.196Z,20.15
2022-08-03T17:24:41.431Z,24.08
2022-08-03T17:28:41.934Z,20.85
2022-08-03T17:30:07.681Z,23.83
2022-08-03T17:32:42.275Z,17.40
2022-08-03T17:35:10.464Z,16.95
2022-08-03T17:37:57.698Z,12.75
2022-08-03T17:40:29.305Z,17.65
2022-08-03T17:42:59.299Z,17.23
2022-08-03T17:45:26.303Z,18.13
2022-08-03T17:48:18.639Z,19.42
2022-08-03T17:50:56.157Z,20.38
2022-08-03T17:53:36.331Z,17.90
2022-08-03T17:59:16.651Z,19.60
2022-08-03T18:02:34.679Z,19.30
2022-08-03T18:05:16.421Z,23.75
2022-08-03T18:07:59.532Z,22.40
2022-08-03T18:10:34.819Z,19.15
2022-08-03T18:13:14.128Z,15.95
2022-08-03T18:15:51.905Z,19.53
2022-08-03T18:18:32.242Z,19.17
2022-08-03T18:21:04.589Z,22.20
2022-08-03T18:23:37.050Z,17.95
2022-08-03T18:26:10.691Z,21.45
2022-08-03T18:28:39.714Z,18.67
2022-08-03T18:31:12.560Z,21.30
2022-08-03T18:34:20.338Z,16.60
2022-08-03T18:36:31.998Z,17.42
2022-08-03T18:39:01.771Z,24.67
2022-08-03T18:41:34.926Z,21.00
2022-08-03T18:47:16.248Z,18.77
2022-08-03T18:50:07.912Z,20.15
2022-08-03T18:52:53.299Z,18.35
2022-08-03T18:55:33.484Z,21.20
2022-08-03T18:58:15.860Z,15.40
2022-08-03T19:01:00.854Z,18.73
2022-08-03T19:03:41.438Z,24.42
2022-08-03T19:06:22.673Z,24.48
2022-08-03T19:08:55.762Z,29.33
2022-08-03T19:12:12.592Z,22.63
2022-08-03T19:14:52.454Z,31.27
2022-08-03T19:20:13.372Z,32.95
2022-08-03T19:22:45.849Z,37.90
2022-08-03T19:25:15.486Z,22.13
2022-08-03T19:27:45.405Z,28.27
2022-08-03T19:30:35.672Z,28.77
2022-08-03T19:33:11.094Z,34.55
2022-08-03T19:35:55.402Z,23.85
2022-08-03T19:38:28.335Z,26.52
2022-08-03T19:41:03.545Z,28.45
2022-08-03T19:43:49.469Z,26.98
2022-08-03T19:46:22.288Z,29.40
2022-08-03T19:49:15.360Z,32.53
2022-08-03T19:52:01.827Z,24.52
2022-08-03T19:54:53.137Z,24.92
2022-08-03T19:57:27.236Z,23.63
2022-08-03T19:59:56.387Z,26.55
2022-08-03T20:02:26.171Z,23.90
2022-08-03T20:04:59.917Z,25.50
2022-08-03T20:07:29.207Z,26.70
2022-08-03T20:09:57.679Z,23.45
2022-08-03T20:12:34.386Z,25.00
2022-08-03T20:15:09.100Z,18.95
2022-08-03T20:17:56.884Z,26.73
2022-08-03T20:20:35.683Z,25.02
2022-08-03T20:23:24.057Z,24.05
2022-08-03T20:25:58.819Z,26.55
2022-08-03T20:28:32.208Z,27.20
2022-08-03T20:30:59.910Z,25.40
2022-08-03T20:33:46.187Z,26.58
2022-08-03T20:36:15.919Z,28.98
2022-08-03T20:38:47.717Z,22.23
2022-08-03T20:41:16.824Z,24.25
2022-08-03T20:43:49.427Z,21.02
2022-08-03T20:46:31.032Z,25.40
2022-08-03T20:49:04.765Z,24.70
2022-08-03T20:51:49.681Z,17.58
2022-08-03T20:54:30.600Z,22.33
2022-08-03T20:57:00.653Z,15.93
2022-08-03T20:59:46.903Z,21.38
2022-08-03T21:05:08.921Z,19.30
2022-08-03T21:08:04.951Z,17.05
2022-08-03T21:10:35.862Z,17.35
2022-08-03T21:12:59.142Z,20.67
2022-08-03T21:13:04.252Z,20.05
2022-08-03T21:13:08.995Z,28.20
2022-08-03T21:13:12.319Z,19.77
2022-08-03T21:13:18.478Z,18.80
2022-08-03T21:16:06.836Z,18.17
2022-08-03T21:18:49.773Z,22.00
2022-08-03T21:21:19.031Z,14.77
2022-08-03T21:23:49.884Z,16.17
2022-08-03T21:26:27.735Z,16.17
2022-08-03T21:28:57.715Z,17.45
2022-08-03T21:31:29.385Z,18.15
2022-08-03T21:34:02.961Z,18.45
2022-08-03T21:36:37.959Z,14.43
2022-08-03T21:39:07.794Z,18.25
2022-08-03T21:41:38.495Z,18.80
2022-08-03T21:44:06.784Z,19.98
2022-08-03T21:46:40.323Z,18.52
2022-08-03T21:49:52.108Z,16.70
2022-08-03T21:51:59.454Z,15.95
2022-08-03T21:54:36.422Z,14.77
2022-08-03T21:57:20.366Z,17.63
2022-08-03T21:59:57.026Z,13.93
2022-08-03T22:02:31.427Z,16.38
2022-08-03T22:05:05.085Z,17.77
2022-08-03T22:07:36.670Z,15.13
2022-08-03T22:10:06.528Z,14.15
2022-08-03T22:12:34.490Z,17.27
2022-08-03T22:15:04.636Z,14.52
2022-08-03T22:20:24.112Z,12.98
2022-08-03T22:22:56.117Z,14.43
2022-08-03T22:25:33.745Z,15.05
2022-08-03T22:28:09.397Z,17.92
2022-08-03T22:30:37.713Z,12.77
2022-08-03T22:33:11.371Z,15.93
2022-08-03T22:35:51.488Z,13.63
2022-08-03T22:38:18.873Z,16.55
2022-08-03T22:40:51.151Z,20.52
2022-08-03T22:43:25.234Z,16.63
2022-08-03T22:46:11.196Z,15.15
2022-08-03T22:48:40.721Z,13.88
2022-08-03T22:51:11.556Z,16.77
2022-08-03T22:53:40.350Z,10.20
2022-08-03T22:56:10.203Z,16.27
2022-08-03T22:58:37.223Z,13.50
2022-08-03T23:01:07.529Z,16.85
2022-08-03T23:06:25.555Z,13.73
2022-08-03T23:08:53.402Z,12.10
2022-08-03T23:11:21.627Z,13.07
2022-08-03T23:13:54.143Z,13.50
2022-08-03T23:16:29.102Z,11.52
2022-08-03T23:19:00.094Z,13.15
2022-08-03T23:21:53.327Z,12.73
2022-08-03T23:24:30.247Z,12.23
2022-08-03T23:26:58.390Z,11.90
2022-08-03T23:29:28.806Z,13.75
2022-08-03T23:31:57.484Z,16.92
2022-08-03T23:34:43.486Z,17.02
2022-08-03T23:37:14.560Z,15.27
2022-08-03T23:39:45.330Z,17.02
2022-08-03T23:42:15.092Z,18.23
2022-08-03T23:44:43.702Z,18.55
2022-08-03T23:47:14.333Z,14.57
2022-08-03T23:49:43.944Z,21.30
2022-08-03T23:52:15.960Z,18.05
2022-08-03T23:55:16.225Z,21.48
